createdAt,value
2019-03-04T00:04:36.466Z,56.80
2019-03-04T00:09:44.895Z,56.35
2019-03-04T00:14:50.739Z,55.50
2019-03-04T00:19:56.390Z,55.23
2019-03-04T00:25:02.050Z,54.61
2019-03-04T00:30:10.244Z,54.54
2019-03-04T00:35:17.327Z,54.76
2019-03-04T00:40:24.344Z,54.55
2019-03-04T00:45:29.992Z,53.97
2019-03-04T00:50:37.824Z,54.54
2019-03-04T00:55:43.677Z,54.41
2019-03-04T01:00:49.624Z,54.81
2019-03-04T01:05:55.879Z,55.23
2019-03-04T01:11:01.568Z,55.08
2019-03-04T01:16:07.201Z,55.61
2019-03-04T01:21:12.970Z,54.90
2019-03-04T01:26:19.139Z,54.74
2019-03-04T01:31:26.671Z,54.26
2019-03-04T01:36:32.562Z,54.27
2019-03-04T01:41:40.204Z,53.89
2019-03-04T01:46:46.597Z,53.59
2019-03-04T01:51:53.078Z,54.54
2019-03-04T01:56:59.463Z,54.87
2019-03-04T02:02:06.489Z,54.96
2019-03-04T02:07:14.598Z,55.36
2019-03-04T02:12:22.165Z,55.02
2019-03-04T02:17:34.437Z,55.15
2019-03-04T02:22:42.314Z,55.31
2019-03-04T02:27:53.040Z,55.11
2019-03-04T02:33:00.466Z,55.50
2019-03-04T02:38:08.099Z,56.13
2019-03-04T02:43:15.797Z,56.09
2019-03-04T02:48:25.425Z,55.36
2019-03-04T02:53:37.902Z,55.25
2019-03-04T02:58:46.958Z,55.47
2019-03-04T03:03:58.241Z,55.79
2019-03-04T03:09:08.544Z,55.71
2019-03-04T03:14:16.926Z,54.96
2019-03-04T03:19:24.877Z,55.48
2019-03-04T03:24:32.344Z,55.19
2019-03-04T03:29:44.684Z,55.50
2019-03-04T03:34:52.222Z,54.90
2019-03-04T03:39:59.497Z,55.56
2019-03-04T03:45:09.583Z,55.15
2019-03-04T03:50:19.367Z,55.22
2019-03-04T03:55:26.634Z,54.91
2019-03-04T04:00:33.716Z,55.27
2019-03-04T04:05:42.401Z,55.25
2019-03-04T04:10:49.576Z,54.57
2019-03-04T04:15:58.927Z,55.12
2019-03-04T04:21:06.442Z,54.69
2019-03-04T04:26:23.863Z,55.33
2019-03-04T04:31:34.644Z,54.88
2019-03-04T04:36:44.517Z,54.44
2019-03-04T04:41:53.536Z,54.39
2019-03-04T04:47:01.035Z,55.59
2019-03-04T04:52:08.319Z,55.02
2019-03-04T04:57:16.555Z,54.50
2019-03-04T05:02:25.843Z,55.24
2019-03-04T05:07:35.207Z,54.26
2019-03-04T05:12:43.618Z,54.42
2019-03-04T05:17:51.758Z,54.95
2019-03-04T05:22:59.199Z,55.10
2019-03-04T05:28:06.949Z,55.93
2019-03-04T05:33:14.415Z,56.94
2019-03-04T05:38:20.967Z,56.03
2019-03-04T05:43:28.776Z,56.40
2019-03-04T05:48:35.917Z,56.71
2019-03-04T05:53:43.517Z,57.39
2019-03-04T05:58:49.973Z,57.31
2019-03-04T06:04:02.308Z,58.39
2019-03-04T06:09:12.040Z,57.92
2019-03-04T06:14:19.801Z,57.87
2019-03-04T06:19:28.897Z,57.31
2019-03-04T06:24:37.892Z,56.74
2019-03-04T06:29:45.316Z,55.39
2019-03-04T06:34:52.667Z,56.43
2019-03-04T06:39:59.965Z,56.41
2019-03-04T06:45:10.336Z,56.39
2019-03-04T06:50:48.057Z,56.96
2019-03-04T06:56:16.876Z,56.65
2019-03-04T07:01:27.184Z,57.39
2019-03-04T07:06:35.011Z,56.48
2019-03-04T07:11:43.979Z,56.38
2019-03-04T07:16:51.567Z,56.08
2019-03-04T07:21:59.326Z,55.77
2019-03-04T07:27:08.777Z,56.74
2019-03-04T07:32:16.491Z,56.47
2019-03-04T07:37:23.534Z,55.37
2019-03-04T07:42:31.301Z,54.25
2019-03-04T07:47:39.989Z,53.42
2019-03-04T07:52:47.655Z,52.38
2019-03-04T07:57:54.847Z,51.78
2019-03-04T08:03:01.680Z,51.47
2019-03-04T08:08:13.611Z,50.70
2019-03-04T08:13:29.826Z,50.36
2019-03-04T08:18:37.136Z,51.10
2019-03-04T08:23:45.412Z,50.38
2019-03-04T08:28:51.291Z,50.18
2019-03-04T08:33:58.332Z,50.86
2019-03-04T08:39:08.528Z,50.37
2019-03-04T08:44:14.912Z,50.22
2019-03-04T08:49:22.541Z,48.90
2019-03-04T08:54:28.295Z,49.58
2019-03-04T08:59:33.852Z,49.28
2019-03-04T09:04:40.562Z,49.12
2019-03-04T09:09:46.102Z,49.04
2019-03-04T09:14:52.994Z,48.32
2019-03-04T09:19:58.763Z,47.34
2019-03-04T09:25:08.345Z,48.19
2019-03-04T09:30:16.934Z,47.45
2019-03-04T09:35:23.333Z,47.43
2019-03-04T09:40:33.773Z,47.29
2019-03-04T09:45:40.215Z,47.10
2019-03-04T09:50:45.849Z,46.56
2019-03-04T09:55:51.560Z,46.60
2019-03-04T10:01:03.128Z,46.43
2019-03-04T10:06:24.671Z,45.50
2019-03-04T10:11:42.793Z,46.38
2019-03-04T10:17:12.210Z,45.44
2019-03-04T10:22:23.910Z,45.16
2019-03-04T10:27:35.807Z,44.41
2019-03-04T10:32:56.976Z,43.98
2019-03-04T10:38:09.206Z,43.35
2019-03-04T10:43:40.846Z,40.49
2019-03-04T10:48:46.883Z,40.20
2019-03-04T10:53:52.770Z,39.74
2019-03-04T10:58:58.407Z,38.62
2019-03-04T11:04:04.239Z,38.73
2019-03-04T11:09:10.885Z,38.23
2019-03-04T11:14:16.836Z,36.23
2019-03-04T11:19:22.704Z,36.01
2019-03-04T11:31:05.661Z,54.81
2019-03-04T11:36:12.372Z,63.80
2019-03-04T11:41:20.635Z,62.98
2019-03-04T11:46:26.565Z,63.03
2019-03-04T11:51:33.565Z,61.64
2019-03-04T11:56:39.127Z,62.09
2019-03-04T12:01:46.859Z,61.36
2019-03-04T12:06:52.700Z,59.54
2019-03-04T12:11:59.109Z,59.18
2019-03-04T12:17:04.739Z,58.06
2019-03-04T12:22:10.481Z,57.06
2019-03-04T12:27:17.063Z,54.35
2019-03-04T12:32:23.945Z,54.19
2019-03-04T12:37:30.405Z,52.72
2019-03-04T12:42:36.031Z,51.76
2019-03-04T12:47:45.250Z,52.38
2019-03-04T12:52:51.397Z,51.06
2019-03-04T12:57:57.520Z,50.26
2019-03-04T13:03:03.231Z,49.64
2019-03-04T13:08:09.019Z,48.59
2019-03-04T13:13:18.037Z,47.78
2019-03-04T13:18:25.131Z,47.52
2019-03-04T13:23:31.602Z,45.38
2019-03-04T13:28:37.415Z,43.64
2019-03-04T13:33:43.501Z,40.95
2019-03-04T13:38:49.668Z,39.00
2019-03-04T13:43:55.329Z,38.59
2019-03-04T13:49:01.262Z,37.94
2019-03-04T13:54:06.885Z,38.28
2019-03-04T13:59:12.810Z,37.26
2019-03-04T14:04:18.896Z,36.43
2019-03-04T14:09:24.826Z,35.51
2019-03-04T14:14:30.741Z,35.79
2019-03-04T14:19:37.315Z,35.08
2019-03-04T14:24:44.496Z,35.07
2019-03-04T14:29:50.270Z,34.54
2019-03-04T14:34:57.258Z,34.70
2019-03-04T14:40:06.325Z,33.72
2019-03-04T14:45:22.619Z,34.74
2019-03-04T14:50:28.681Z,35.30
2019-03-04T14:55:39.961Z,34.53
2019-03-04T15:00:50.593Z,34.64
2019-03-04T15:06:06.303Z,35.58
2019-03-04T15:11:04.812Z,35.47
2019-03-04T15:16:11.713Z,35.43
2019-03-04T15:21:17.337Z,34.25
2019-03-04T15:26:23.194Z,33.52
2019-03-04T15:31:29.322Z,35.11
2019-03-04T15:36:35.794Z,36.37
2019-03-04T15:41:41.386Z,35.81
2019-03-04T15:46:47.116Z,36.06
2019-03-04T15:51:53.560Z,37.34
2019-03-04T15:57:04.704Z,37.08
2019-03-04T16:02:13.257Z,36.44
2019-03-04T16:07:19.227Z,36.95
2019-03-04T16:12:25.250Z,60.82
2019-03-04T16:17:32.165Z,68.33
2019-03-04T16:22:37.869Z,69.50
2019-03-04T16:27:45.976Z,70.30
2019-03-04T16:32:51.704Z,69.52
2019-03-04T16:37:58.392Z,67.82
2019-03-04T16:43:05.015Z,67.38
2019-03-04T16:48:10.851Z,66.87
2019-03-04T16:53:29.080Z,66.12
2019-03-04T16:58:35.363Z,66.24
2019-03-04T17:03:41.035Z,65.72
2019-03-04T17:08:46.703Z,65.50
2019-03-04T17:13:52.424Z,64.70
2019-03-04T17:18:58.567Z,64.14
2019-03-04T17:24:04.769Z,64.24
2019-03-04T17:29:12.568Z,63.95
2019-03-04T17:34:19.191Z,64.47
2019-03-04T17:39:25.205Z,64.13
2019-03-04T17:44:31.151Z,63.80
2019-03-04T17:49:36.845Z,62.81
2019-03-04T17:54:42.392Z,62.27
2019-03-04T17:59:47.934Z,61.95
2019-03-04T18:04:54.629Z,61.44
2019-03-04T18:10:00.895Z,61.20
2019-03-04T18:15:09.752Z,60.20
2019-03-04T18:20:16.455Z,59.70
2019-03-04T18:25:25.234Z,59.69
2019-03-04T18:30:39.945Z,58.71
2019-03-04T18:36:17.563Z,58.35
2019-03-04T18:41:43.643Z,58.17
2019-03-04T18:47:04.383Z,56.96
2019-03-04T18:52:10.386Z,57.50
2019-03-04T18:57:16.120Z,57.25
2019-03-04T19:02:23.850Z,56.74
2019-03-04T19:07:30.739Z,56.46
2019-03-04T19:12:37.431Z,56.09
2019-03-04T19:17:43.298Z,56.61
2019-03-04T19:22:48.863Z,55.46
2019-03-04T19:27:55.633Z,54.39
2019-03-04T19:33:01.287Z,53.86
2019-03-04T19:38:07.019Z,54.61
2019-03-04T19:43:12.730Z,53.99
2019-03-04T19:48:25.463Z,53.00
2019-03-04T19:53:32.047Z,53.25
2019-03-04T19:58:39.866Z,53.69
2019-03-04T20:03:45.691Z,53.01
2019-03-04T20:08:52.084Z,52.39
2019-03-04T20:13:58.296Z,52.52
2019-03-04T20:19:04.542Z,51.30
2019-03-04T20:24:10.230Z,51.39
2019-03-04T20:29:17.083Z,51.07
2019-03-04T20:34:24.584Z,50.92
2019-03-04T20:39:32.470Z,50.27
2019-03-04T20:44:38.245Z,49.97
2019-03-04T20:49:44.178Z,50.00
2019-03-04T20:54:50.388Z,49.60
2019-03-04T20:59:59.120Z,49.00
2019-03-04T21:05:07.201Z,48.58
2019-03-04T21:10:13.940Z,48.46
2019-03-04T21:15:22.542Z,48.83
2019-03-04T21:20:30.720Z,48.93
2019-03-04T21:25:46.240Z,48.30
2019-03-04T21:31:23.181Z,48.77
2019-03-04T21:36:46.141Z,48.89
2019-03-04T21:42:00.742Z,49.37
2019-03-04T21:47:12.863Z,48.84
2019-03-04T21:52:21.890Z,49.54
2019-03-04T21:57:37.598Z,49.88
2019-03-04T22:02:48.792Z,49.39
2019-03-04T22:07:55.412Z,49.91
2019-03-04T22:13:01.332Z,50.55
2019-03-04T22:18:08.244Z,50.24
2019-03-04T22:23:14.322Z,49.71
2019-03-04T22:28:19.991Z,48.97
2019-03-04T22:33:26.667Z,49.50
2019-03-04T22:38:32.525Z,49.50
2019-03-04T22:43:38.609Z,49.47
2019-03-04T22:48:44.147Z,48.92
2019-03-04T22:53:50.564Z,49.00
2019-03-04T22:58:57.457Z,48.83
2019-03-04T23:04:06.376Z,48.32
2019-03-04T23:09:16.136Z,48.97
2019-03-04T23:14:24.905Z,49.05
2019-03-04T23:19:30.515Z,49.00
2019-03-04T23:24:36.309Z,48.77
2019-03-04T23:29:42.040Z,48.42
2019-03-04T23:34:47.602Z,49.36
2019-03-04T23:39:53.565Z,48.89
2019-03-04T23:44:59.710Z,48.74
2019-03-04T23:50:16.554Z,49.01
2019-03-04T23:55:22.239Z,48.46
